| time (UTC) | temp F | wind direction | speed MPH | gust MPH | rain 1hr in | rain 24hr in | rain mn in | humidity % | barometer mb |
| 20260906115852 | 73 | 225 | 0.0 | 0.0 | 0.00 | 0.04 | 0.01 | 95 | 1011.7 |
| 20260906115334 | 73 | 225 | 0.0 | 0.0 | 0.00 | 0.04 | 0.01 | 95 | 1011.7 |
| 20260906115057 | 73 | 225 | 0.0 | 0.0 | 0.00 | 0.04 | 0.01 | 95 | 1011.6 |
| 20260906114259 | 73 | 225 | 0.0 | 0.0 | 0.00 | 0.04 | 0.01 | 95 | 1011.5 |
| 20260906113758 | 73 | 225 | 0.0 | 4.0 | 0.00 | 0.04 | 0.01 | 95 | 1011.3 |
| 20260906113521 | 73 | 225 | 1.0 | 4.0 | 0.00 | 0.04 | 0.01 | 95 | 1011.4 |
| 20260906112752 | 73 | 338 | 0.0 | 2.0 | 0.00 | 0.04 | 0.01 | 95 | 1011.5 |
| 20260906112253 | 73 | 100 | 0.0 | 0.0 | 0.00 | 0.04 | 0.01 | 95 | 1010.9 |
| 20260906111744 | 73 | 100 | 0.0 | 0.0 | 0.00 | 0.04 | 0.01 | 95 | 1010.9 |
| 20260906111248 | 73 | 100 | 0.0 | 0.0 | 0.00 | 0.04 | 0.01 | 95 | 1010.7 |
| 20260906110728 | 73 | 100 | 0.0 | 0.0 | 0.00 | 0.04 | 0.01 | 95 | 1010.5 |
| 20260906110226 | 73 | 100 | 0.0 | 0.0 | 0.00 | 0.04 | 0.01 | 95 | 1010.5 |
| 20260906105709 | 73 | 100 | 0.0 | 0.0 | 0.00 | 0.04 | 0.01 | 95 | 1010.4 |
| 20260906105210 | 73 | 100 | 0.0 | 0.0 | 0.00 | 0.04 | 0.01 | 94 | 1010.2 |
| 20260906104644 | 73 | 100 | 0.0 | 0.0 | 0.00 | 0.04 | 0.01 | 94 | 1010.2 |
| 20260906104141 | 73 | 100 | 0.0 | 0.0 | 0.00 | 0.04 | 0.01 | 94 | 1010.2 |
| 20260906103631 | 73 | 100 | 0.0 | 0.0 | 0.00 | 0.04 | 0.01 | 94 | 1010.1 |
| 20260906103127 | 73 | 100 | 0.0 | 0.0 | 0.00 | 0.04 | 0.01 | 94 | 1010.0 |
| 20260906102551 | 73 | 100 | 0.0 | 0.0 | 0.00 | 0.04 | 0.01 | 94 | 1010.0 |
| 20260906102030 | 73 | 100 | 0.0 | 0.0 | 0.00 | 0.04 | 0.01 | 94 | 1010.0 |
| 20260906101523 | 73 | 100 | 0.0 | 0.0 | 0.00 | 0.04 | 0.01 | 94 | 1010.0 |
| 20260906101008 | 73 | 100 | 0.0 | 0.0 | 0.00 | 0.04 | 0.01 | 94 | 1010.0 |
| 20260906100504 | 73 | 100 | 0.0 | 0.0 | 0.00 | 0.04 | 0.01 | 94 | 1009.8 |
| 20260906095958 | 73 | 100 | 0.0 | 0.0 | 0.00 | 0.04 | 0.01 | 94 | 1009.8 |
| 20260906095447 | 74 | 100 | 0.0 | 0.0 | 0.00 | 0.04 | 0.01 | 94 | 1009.8 |
| 20260906094939 | 74 | 100 | 0.0 | 0.0 | 0.00 | 0.04 | 0.01 | 94 | 1009.8 |
| 20260906094435 | 74 | 100 | 0.0 | 0.0 | 0.00 | 0.04 | 0.01 | 94 | 1009.8 |
| 20260906094126 | 74 | 100 | 0.0 | 0.0 | 0.00 | 0.04 | 0.01 | 94 | 1009.8 |
| 20260906093355 | 74 | 100 | 0.0 | 0.0 | 0.00 | 0.04 | 0.01 | 94 | 1009.8 |
| 20260906092850 | 74 | 100 | 0.0 | 0.0 | 0.00 | 0.04 | 0.01 | 94 | 1009.8 |
| 20260906092324 | 74 | 100 | 0.0 | 0.0 | 0.00 | 0.04 | 0.01 | 94 | 1009.7 |
| 20260906092037 | 74 | 100 | 0.0 | 0.0 | 0.00 | 0.04 | 0.01 | 94 | 1009.8 |
| 20260906091306 | 74 | 100 | 0.0 | 0.0 | 0.00 | 0.04 | 0.01 | 94 | 1009.6 |
| 20260906090806 | 74 | 100 | 0.0 | 0.0 | 0.00 | 0.04 | 0.01 | 94 | 1009.6 |
| 20260906090311 | 74 | 100 | 0.0 | 0.0 | 0.00 | 0.04 | 0.01 | 94 | 1009.7 |
| 20260906085752 | 74 | 100 | 0.0 | 0.0 | 0.01 | 0.04 | 0.01 | 94 | 1009.8 |
| 20260906085249 | 74 | 100 | 0.0 | 0.0 | 0.01 | 0.04 | 0.01 | 94 | 1009.9 |
| 20260906084743 | 74 | 100 | 0.0 | 0.0 | 0.01 | 0.04 | 0.01 | 94 | 1009.9 |
| 20260906084456 | 74 | 100 | 0.0 | 0.0 | 0.01 | 0.04 | 0.01 | 94 | 1009.9 |
| 20260906083716 | 74 | 100 | 0.0 | 0.0 | 0.01 | 0.04 | 0.01 | 94 | 1009.9 |
| 20260906083211 | 74 | 100 | 0.0 | 0.0 | 0.01 | 0.04 | 0.01 | 94 | 1009.8 |
| 20260906082656 | 74 | 100 | 0.0 | 0.0 | 0.01 | 0.04 | 0.01 | 94 | 1009.8 |
| 20260906082118 | 74 | 100 | 0.0 | 0.0 | 0.01 | 0.04 | 0.01 | 94 | 1009.8 |
| 20260906081602 | 75 | 100 | 0.0 | 0.0 | 0.01 | 0.04 | 0.01 | 94 | 1009.9 |
| 20260906081055 | 75 | 100 | 0.0 | 0.0 | 0.01 | 0.04 | 0.01 | 94 | 1009.9 |
| 20260906080547 | 75 | 100 | 0.0 | 0.0 | 0.01 | 0.04 | 0.01 | 94 | 1009.9 |
| 20260906080037 | 75 | 100 | 0.0 | 0.0 | 0.01 | 0.04 | 0.01 | 94 | 1009.9 |
| 20260906075512 | 75 | 100 | 0.0 | 0.0 | 0.00 | 0.03 | 0.00 | 94 | 1009.9 |
| 20260906075006 | 75 | 100 | 0.0 | 0.0 | 0.00 | 0.03 | 0.00 | 94 | 1010.0 |
| 20260906074455 | 75 | 100 | 0.0 | 0.0 | 0.00 | 0.03 | 0.00 | 94 | 1009.9 |
| 20260906073955 | 75 | 100 | 0.0 | 0.0 | 0.00 | 0.03 | 0.00 | 94 | 1009.9 |
| 20260906073655 | 75 | 100 | 0.0 | 0.0 | 0.00 | 0.03 | 0.00 | 94 | 1009.9 |
| 20260906072921 | 75 | 100 | 0.0 | 0.0 | 0.00 | 0.03 | 0.00 | 94 | 1009.9 |
| 20260906072425 | 75 | 100 | 0.0 | 0.0 | 0.00 | 0.03 | 0.00 | 94 | 1009.9 |
| 20260906071904 | 75 | 100 | 0.0 | 0.0 | 0.00 | 0.03 | 0.00 | 94 | 1009.8 |
| 20260906071408 | 75 | 100 | 0.0 | 0.0 | 0.00 | 0.03 | 0.00 | 93 | 1009.8 |
| 20260906070857 | 75 | 100 | 0.0 | 0.0 | 0.00 | 0.03 | 0.00 | 94 | 1009.8 |
| 20260906070610 | 75 | 100 | 0.0 | 0.0 | 0.00 | 0.03 | 0.00 | 94 | 1009.8 |
| 20260906070031 | 75 | 100 | 0.0 | 0.0 | 0.00 | 0.03 | 0.00 | 93 | 1009.7 |
| 20260906065309 | 75 | 100 | 0.0 | 0.0 | 0.00 | 0.03 | 0.00 | 93 | 1009.7 |
| 20260906064806 | 75 | 100 | 0.0 | 1.0 | 0.00 | 0.03 | 0.00 | 93 | 1009.8 |
| 20260906064303 | 75 | 100 | 0.0 | 1.0 | 0.00 | 0.03 | 0.00 | 93 | 1009.8 |
| 20260906063805 | 75 | 101 | 0.0 | 2.0 | 0.00 | 0.03 | 0.00 | 93 | 1010.0 |
| 20260906063304 | 75 | 101 | 0.0 | 2.0 | 0.00 | 0.03 | 0.00 | 93 | 1009.9 |
| 20260906062754 | 75 | 41 | 0.0 | 0.0 | 0.00 | 0.03 | 0.00 | 93 | 1009.8 |
| 20260906062224 | 75 | 41 | 0.0 | 0.0 | 0.00 | 0.03 | 0.00 | 93 | 1009.8 |
| 20260906061953 | 75 | 41 | 0.0 | 0.0 | 0.00 | 0.03 | 0.00 | 93 | 1010.0 |
| 20260906061206 | 75 | 41 | 0.0 | 0.0 | 0.00 | 0.03 | 0.00 | 93 | 1010.0 |
| 20260906060930 | 75 | 41 | 0.0 | 0.0 | 0.00 | 0.03 | 0.00 | 93 | 1010.1 |
| 20260906060146 | 75 | 41 | 0.0 | 0.0 | 0.00 | 0.03 | 0.00 | 93 | 1010.1 |
| 20260906055610 | 75 | 41 | 0.0 | 0.0 | 0.00 | 0.03 | 0.00 | 93 | 1010.2 |
| 20260906055320 | 75 | 41 | 0.0 | 0.0 | 0.00 | 0.03 | 0.00 | 93 | 1010.2 |
| 20260906054544 | 76 | 40 | 0.0 | 0.0 | 0.00 | 0.03 | 0.00 | 92 | 1010.2 |
| 20260906054017 | 76 | 41 | 0.0 | 0.0 | 0.00 | 0.03 | 0.00 | 92 | 1010.2 |
| 20260906053500 | 76 | 41 | 0.0 | 0.0 | 0.00 | 0.03 | 0.00 | 92 | 1010.2 |
| 20260906052939 | 76 | 40 | 0.0 | 0.0 | 0.00 | 0.03 | 0.00 | 93 | 1010.2 |
| 20260906052436 | 76 | 41 | 0.0 | 0.0 | 0.00 | 0.03 | 0.00 | 92 | 1010.2 |
| 20260906051925 | 76 | 41 | 0.0 | 0.0 | 0.00 | 0.03 | 0.00 | 92 | 1010.2 |
| 20260906051406 | 76 | 41 | 0.0 | 0.0 | 0.00 | 0.03 | 0.00 | 92 | 1010.2 |
| 20260906050906 | 76 | 41 | 0.0 | 0.0 | 0.00 | 0.03 | 0.00 | 92 | 1010.3 |
| 20260906050434 | 76 | 41 | 0.0 | 0.0 | 0.00 | 0.03 | 0.00 | 92 | 1010.1 |
| 20260906045852 | 76 | 41 | 0.0 | 0.0 | 0.00 | 0.03 | 0.03 | 92 | 1010.2 |
| 20260906045607 | 76 | 40 | 0.0 | 0.0 | 0.00 | 0.03 | 0.03 | 92 | 1010.2 |
| 20260906044840 | 76 | 41 | 0.0 | 0.0 | 0.00 | 0.03 | 0.03 | 92 | 1010.2 |
| 20260906044550 | 76 | 41 | 0.0 | 0.0 | 0.00 | 0.03 | 0.03 | 92 | 1010.1 |
| 20260906043815 | 76 | 41 | 0.0 | 0.0 | 0.00 | 0.03 | 0.03 | 92 | 1010.1 |
| 20260906043308 | 77 | 41 | 0.0 | 0.0 | 0.00 | 0.03 | 0.03 | 92 | 1010.1 |
| 20260906042748 | 77 | 41 | 0.0 | 0.0 | 0.00 | 0.03 | 0.03 | 91 | 1010.1 |
| 20260906042221 | 77 | 41 | 0.0 | 0.0 | 0.00 | 0.03 | 0.03 | 91 | 1010.1 |
| 20260906041715 | 77 | 40 | 0.0 | 0.0 | 0.00 | 0.03 | 0.03 | 91 | 1010.1 |
| 20260906041208 | 77 | 41 | 0.0 | 0.0 | 0.00 | 0.03 | 0.03 | 91 | 1010.1 |
| 20260906040707 | 77 | 41 | 0.0 | 0.0 | 0.00 | 0.03 | 0.03 | 91 | 1010.1 |
| 20260906040627 | 77 | 40 | 0.0 | 0.0 | 0.00 | 0.03 | 0.03 | 91 | 1010.1 |
| 20260906035638 | 77 | 41 | 0.0 | 0.0 | 0.00 | 0.03 | 0.03 | 91 | 1010.2 |
| 20260906035411 | 78 | 41 | 0.0 | 0.0 | 0.00 | 0.03 | 0.03 | 91 | 1010.1 |
| 20260906034636 | 78 | 41 | 0.0 | 0.0 | 0.00 | 0.03 | 0.03 | 91 | 1010.2 |
| 20260906034128 | 78 | 41 | 0.0 | 0.0 | 0.00 | 0.03 | 0.03 | 91 | 1010.2 |
| 20260906033625 | 78 | 41 | 0.0 | 0.0 | 0.00 | 0.03 | 0.03 | 90 | 1010.1 |
| 20260906033349 | 78 | 41 | 0.0 | 0.0 | 0.00 | 0.03 | 0.03 | 90 | 1010.1 |
| 20260906032829 | 78 | 40 | 0.0 | 0.0 | 0.00 | 0.03 | 0.03 | 90 | 1009.9 |
| 20260906032107 | 78 | 41 | 0.0 | 0.0 | 0.00 | 0.03 | 0.03 | 90 | 1010.0 |
| 20260906031607 | 78 | 41 | 0.0 | 0.0 | 0.00 | 0.03 | 0.03 | 90 | 1010.0 |
| 20260906031331 | 78 | 41 | 0.0 | 0.0 | 0.00 | 0.03 | 0.03 | 90 | 1010.0 |
| 20260906030605 | 79 | 41 | 0.0 | 0.0 | 0.00 | 0.03 | 0.03 | 90 | 1010.0 |
| 20260906030331 | 79 | 41 | 0.0 | 0.0 | 0.00 | 0.03 | 0.03 | 89 | 1009.9 |
| 20260906025559 | 79 | 41 | 0.0 | 0.0 | 0.00 | 0.03 | 0.03 | 89 | 1009.9 |
| 20260906025117 | 79 | 40 | 0.0 | 0.0 | 0.00 | 0.03 | 0.03 | 89 | 1010.0 |
| 20260906024545 | 79 | 41 | 0.0 | 0.0 | 0.00 | 0.03 | 0.03 | 89 | 1010.1 |
| 20260906024011 | 79 | 41 | 0.0 | 0.0 | 0.00 | 0.03 | 0.03 | 89 | 1010.0 |
| 20260906023506 | 80 | 41 | 0.0 | 0.0 | 0.00 | 0.03 | 0.03 | 88 | 1010.0 |
| 20260906022958 | 80 | 41 | 0.0 | 0.0 | 0.00 | 0.03 | 0.03 | 88 | 1010.0 |
| 20260906022448 | 80 | 41 | 0.0 | 0.0 | 0.00 | 0.03 | 0.03 | 88 | 1009.9 |
| 20260906021941 | 80 | 41 | 0.0 | 0.0 | 0.00 | 0.03 | 0.03 | 88 | 1009.9 |
| 20260906021704 | 80 | 40 | 0.0 | 0.0 | 0.00 | 0.03 | 0.03 | 88 | 1009.9 |
| 20260906020936 | 80 | 40 | 0.0 | 0.0 | 0.00 | 0.03 | 0.03 | 87 | 1009.8 |
| 20260906020426 | 81 | 41 | 0.0 | 0.0 | 0.00 | 0.03 | 0.03 | 87 | 1009.7 |
| 20260906015911 | 81 | 41 | 0.0 | 0.0 | 0.00 | 0.03 | 0.03 | 87 | 1009.6 |
| 20260906015408 | 81 | 41 | 0.0 | 0.0 | 0.00 | 0.03 | 0.03 | 86 | 1009.7 |
| 20260906014906 | 81 | 41 | 0.0 | 0.0 | 0.00 | 0.03 | 0.03 | 86 | 1009.6 |
| 20260906014348 | 82 | 41 | 0.0 | 0.0 | 0.00 | 0.03 | 0.03 | 85 | 1009.4 |
| 20260906013818 | 82 | 40 | 0.0 | 0.0 | 0.00 | 0.03 | 0.03 | 85 | 1009.5 |
| 20260906013312 | 82 | 41 | 0.0 | 0.0 | 0.00 | 0.03 | 0.03 | 85 | 1009.4 |
| 20260906012745 | 83 | 41 | 0.0 | 0.0 | 0.00 | 0.03 | 0.03 | 84 | 1009.4 |
| 20260906012502 | 83 | 41 | 0.0 | 0.0 | 0.00 | 0.03 | 0.03 | 84 | 1009.4 |
| 20260906011724 | 83 | 41 | 0.0 | 0.0 | 0.00 | 0.03 | 0.03 | 83 | 1009.2 |
| 20260906011436 | 84 | 41 | 0.0 | 0.0 | 0.00 | 0.03 | 0.03 | 82 | 1009.0 |
| 20260906010710 | 84 | 41 | 0.0 | 0.0 | 0.00 | 0.03 | 0.03 | 81 | 1009.0 |
| 20260906010207 | 85 | 41 | 0.0 | 0.0 | 0.00 | 0.03 | 0.03 | 81 | 1009.0 |
| 20260906005926 | 85 | 41 | 0.0 | 0.0 | 0.00 | 0.03 | 0.03 | 81 | 1009.0 |
| 20260906004654 | 86 | 41 | 0.0 | 0.0 | 0.00 | 0.03 | 0.03 | 78 | 1009.0 |
| 20260906004156 | 86 | 41 | 0.0 | 0.0 | 0.00 | 0.03 | 0.03 | 78 | 1009.0 |
| 20260906003647 | 87 | 41 | 0.0 | 0.0 | 0.00 | 0.03 | 0.03 | 77 | 1009.0 |
| 20260906003414 | 87 | 41 | 0.0 | 0.0 | 0.00 | 0.03 | 0.03 | 76 | 1009.0 |
| 20260906002647 | 88 | 40 | 0.0 | 0.0 | 0.00 | 0.03 | 0.03 | 75 | 1009.0 |
| 20260906002117 | 89 | 40 | 0.0 | 0.0 | 0.00 | 0.03 | 0.03 | 73 | 1009.0 |
| 20260906001610 | 90 | 41 | 0.0 | 0.0 | 0.00 | 0.03 | 0.03 | 73 | 1009.1 |
| 20260906001548 | 90 | 41 | 0.0 | 0.0 | 0.00 | 0.03 | 0.03 | 72 | 1009.0 |
| 20260906000828 | 91 | 40 | 0.0 | 0.0 | 0.00 | 0.03 | 0.03 | 70 | 1009.2 |
| 20260906000106 | 92 | 41 | 0.0 | 0.0 | 0.00 | 0.03 | 0.03 | 72 | 1009.2 |
| 20260905235557 | 92 | 41 | 0.0 | 0.0 | 0.00 | 0.03 | 0.03 | 70 | 1009.2 |
| 20260905235059 | 92 | 40 | 0.0 | 0.0 | 0.00 | 0.03 | 0.03 | 68 | 1009.2 |
| 20260905234555 | 93 | 40 | 0.0 | 0.0 | 0.00 | 0.03 | 0.03 | 69 | 1009.2 |
| 20260905234056 | 93 | 40 | 0.0 | 0.0 | 0.00 | 0.03 | 0.03 | 70 | 1009.2 |
| 20260905233553 | 93 | 40 | 0.0 | 0.0 | 0.00 | 0.03 | 0.03 | 71 | 1009.2 |
| 20260905233053 | 94 | 40 | 0.0 | 0.0 | 0.00 | 0.03 | 0.03 | 69 | 1009.3 |
| 20260905233036 | 94 | 40 | 0.0 | 0.0 | 0.00 | 0.03 | 0.03 | 68 | 1009.2 |
| 20260905232032 | 94 | 40 | 0.0 | 0.0 | 0.00 | 0.03 | 0.03 | 68 | 1009.2 |
| 20260905231524 | 94 | 40 | 0.0 | 0.0 | 0.00 | 0.03 | 0.03 | 69 | 1009.3 |
| 20260905231019 | 95 | 40 | 0.0 | 0.0 | 0.00 | 0.03 | 0.03 | 68 | 1009.3 |
| 20260905230522 | 95 | 40 | 0.0 | 0.0 | 0.00 | 0.03 | 0.03 | 67 | 1009.3 |
| 20260905230008 | 95 | 40 | 0.0 | 0.0 | 0.00 | 0.03 | 0.03 | 66 | 1009.3 |
| 20260905225506 | 95 | 40 | 0.0 | 0.0 | 0.00 | 0.03 | 0.03 | 64 | 1009.2 |
| 20260905225006 | 95 | 41 | 0.0 | 0.0 | 0.00 | 0.03 | 0.03 | 66 | 1009.2 |
| 20260905224458 | 95 | 40 | 0.0 | 0.0 | 0.00 | 0.03 | 0.03 | 67 | 1009.2 |
| 20260905223959 | 94 | 40 | 0.0 | 0.0 | 0.00 | 0.03 | 0.03 | 69 | 1009.3 |
| 20260905223452 | 94 | 44 | 0.0 | 0.0 | 0.00 | 0.03 | 0.03 | 69 | 1009.4 |
| 20260905222948 | 94 | 44 | 0.0 | 0.0 | 0.00 | 0.03 | 0.03 | 70 | 1009.3 |
| 20260905222427 | 94 | 44 | 0.0 | 0.0 | 0.00 | 0.03 | 0.03 | 71 | 1009.4 |
| 20260905221925 | 94 | 44 | 0.0 | 0.0 | 0.00 | 0.03 | 0.03 | 70 | 1009.3 |
| 20260905221422 | 94 | 44 | 0.0 | 0.0 | 0.00 | 0.03 | 0.03 | 72 | 1009.4 |
| 20260905220919 | 94 | 44 | 0.0 | 0.0 | 0.00 | 0.03 | 0.03 | 71 | 1009.5 |
| 20260905220840 | 94 | 44 | 0.0 | 0.0 | 0.00 | 0.03 | 0.03 | 69 | 1009.5 |
| 20260905215853 | 95 | 44 | 0.0 | 0.0 | 0.00 | 0.03 | 0.03 | 70 | 1009.4 |
| 20260905215352 | 95 | 44 | 0.0 | 0.0 | 0.00 | 0.03 | 0.03 | 69 | 1009.5 |
| 20260905214852 | 95 | 44 | 0.0 | 0.0 | 0.00 | 0.03 | 0.03 | 67 | 1009.5 |
| 20260905214613 | 95 | 44 | 0.0 | 1.0 | 0.00 | 0.03 | 0.03 | 65 | 1009.5 |
| 20260905214049 | 95 | 44 | 0.0 | 1.0 | 0.00 | 0.03 | 0.03 | 64 | 1009.4 |
| 20260905213309 | 94 | 44 | 0.0 | 1.0 | 0.00 | 0.03 | 0.03 | 73 | 1009.4 |
| 20260905212755 | 94 | 45 | 0.0 | 0.0 | 0.03 | 0.03 | 0.03 | 73 | 1009.5 |
| 20260905212244 | 92 | 45 | 0.0 | 0.0 | 0.03 | 0.03 | 0.03 | 72 | 1009.5 |
| 20260905211739 | 91 | 45 | 0.0 | 0.0 | 0.03 | 0.03 | 0.03 | 78 | 1009.6 |
| 20260905211227 | 91 | 45 | 0.0 | 0.0 | 0.03 | 0.03 | 0.03 | 80 | 1009.7 |
| 20260905210718 | 90 | 45 | 0.0 | 1.0 | 0.03 | 0.03 | 0.03 | 80 | 1009.6 |
| 20260905210221 | 90 | 45 | 0.0 | 1.0 | 0.03 | 0.03 | 0.03 | 79 | 1009.7 |
| 20260905205704 | 89 | 45 | 0.0 | 1.0 | 0.03 | 0.03 | 0.03 | 79 | 1009.8 |
| 20260905205204 | 89 | 46 | 0.0 | 1.0 | 0.03 | 0.03 | 0.03 | 76 | 1009.8 |
| 20260905204654 | 90 | 44 | 0.0 | 0.0 | 0.03 | 0.03 | 0.03 | 73 | 1010.0 |
| 20260905204150 | 91 | 44 | 0.0 | 1.0 | 0.03 | 0.03 | 0.03 | 69 | 1010.3 |
| 20260905203626 | 91 | 44 | 1.0 | 9.0 | 0.03 | 0.03 | 0.03 | 64 | 1010.3 |
| 20260905203113 | 93 | 37 | 3.0 | 11.0 | 0.02 | 0.02 | 0.02 | 60 | 1010.5 |
| 20260905202610 | 95 | 83 | 3.0 | 13.0 | 0.00 | 0.00 | 0.00 | 52 | 1010.4 |
| 20260905202108 | 97 | 319 | 2.0 | 13.0 | 0.00 | 0.00 | 0.00 | 48 | 1010.6 |
| 20260905201609 | 98 | 280 | 1.0 | 8.0 | 0.00 | 0.00 | 0.00 | 48 | 1010.8 |
| 20260905201554 | 98 | 279 | 1.0 | 4.0 | 0.00 | 0.00 | 0.00 | 47 | 1010.5 |
| 20260905200605 | 97 | 268 | 0.0 | 4.0 | 0.00 | 0.00 | 0.00 | 55 | 1010.6 |
| 20260905200321 | 96 | 199 | 0.0 | 0.0 | 0.00 | 0.00 | 0.00 | 51 | 1010.5 |
| 20260905195606 | 94 | 286 | 0.0 | 4.0 | 0.00 | 0.00 | 0.00 | 58 | 1010.4 |
| 20260905195057 | 94 | 287 | 1.0 | 4.0 | 0.00 | 0.00 | 0.00 | 57 | 1010.5 |
| 20260905194553 | 93 | 240 | 0.0 | 3.0 | 0.00 | 0.00 | 0.00 | 58 | 1010.6 |
| 20260905194045 | 93 | 232 | 0.0 | 2.0 | 0.00 | 0.00 | 0.00 | 61 | 1010.8 |
| 20260905193547 | 93 | 232 | 0.0 | 3.0 | 0.00 | 0.00 | 0.00 | 60 | 1010.9 |
| 20260905193040 | 94 | 232 | 0.0 | 3.0 | 0.00 | 0.00 | 0.00 | 58 | 1011.0 |
| 20260905192806 | 95 | 213 | 1.0 | 4.0 | 0.00 | 0.00 | 0.00 | 54 | 1011.0 |
| 20260905192036 | 96 | 215 | 2.0 | 9.0 | 0.00 | 0.00 | 0.00 | 50 | 1011.2 |
| 20260905191534 | 98 | 292 | 2.0 | 10.0 | 0.00 | 0.00 | 0.00 | 49 | 1011.2 |
| 20260905191022 | 101 | 264 | 1.0 | 10.0 | 0.00 | 0.00 | 0.00 | 40 | 1011.4 |
| 20260905190522 | 101 | 16 | 2.0 | 10.0 | 0.00 | 0.00 | 0.00 | 40 | 1011.3 |
| 20260905190014 | 102 | 58 | 2.0 | 10.0 | 0.00 | 0.00 | 0.00 | 42 | 1011.5 |
| 20260905185509 | 102 | 282 | 2.0 | 8.0 | 0.00 | 0.00 | 0.00 | 42 | 1011.3 |
| 20260905185233 | 101 | 292 | 2.0 | 8.0 | 0.00 | 0.00 | 0.00 | 40 | 1011.3 |
| 20260905184505 | 102 | 58 | 1.0 | 7.0 | 0.00 | 0.00 | 0.00 | 41 | 1011.4 |
| 20260905184004 | 101 | 188 | 1.0 | 4.0 | 0.00 | 0.00 | 0.00 | 41 | 1011.5 |
| 20260905183727 | 101 | 134 | 1.0 | 6.0 | 0.00 | 0.00 | 0.00 | 43 | 1011.6 |
| 20260905182951 | 101 | 20 | 1.0 | 6.0 | 0.00 | 0.00 | 0.00 | 42 | 1011.6 |
| 20260905182446 | 101 | 50 | 1.0 | 6.0 | 0.00 | 0.00 | 0.00 | 42 | 1011.6 |
| 20260905181943 | 101 | 20 | 2.0 | 7.0 | 0.00 | 0.00 | 0.00 | 46 | 1011.6 |
| 20260905181444 | 100 | 0 | 2.0 | 9.0 | 0.00 | 0.00 | 0.00 | 46 | 1011.7 |
| 20260905180940 | 100 | 15 | 2.0 | 9.0 | 0.00 | 0.00 | 0.00 | 43 | 1011.7 |
| 20260905180429 | 100 | 107 | 2.0 | 7.0 | 0.00 | 0.00 | 0.00 | 44 | 1011.9 |
| 20260905175923 | 100 | 26 | 2.0 | 6.0 | 0.00 | 0.00 | 0.00 | 45 | 1011.9 |
| 20260905175422 | 100 | 86 | 2.0 | 6.0 | 0.00 | 0.00 | 0.00 | 44 | 1012.0 |
| 20260905174921 | 100 | 117 | 1.0 | 6.0 | 0.00 | 0.00 | 0.00 | 46 | 1011.9 |
| 20260905174423 | 100 | 38 | 1.0 | 3.0 | 0.00 | 0.00 | 0.00 | 47 | 1012.0 |
| 20260905173908 | 100 | 80 | 2.0 | 7.0 | 0.00 | 0.00 | 0.00 | 50 | 1012.0 |
| 20260905173406 | 100 | 26 | 2.0 | 7.0 | 0.00 | 0.00 | 0.00 | 45 | 1012.1 |
| 20260905172905 | 100 | 44 | 2.0 | 6.0 | 0.00 | 0.00 | 0.00 | 45 | 1012.1 |
| 20260905172405 | 100 | 26 | 2.0 | 6.0 | 0.00 | 0.00 | 0.00 | 45 | 1012.0 |
| 20260905172344 | 100 | 326 | 1.0 | 5.0 | 0.00 | 0.00 | 0.00 | 45 | 1012.1 |
| 20260905171400 | 99 | 35 | 2.0 | 4.0 | 0.00 | 0.00 | 0.00 | 45 | 1012.2 |
| 20260905171340 | 99 | 179 | 2.0 | 7.0 | 0.00 | 0.00 | 0.00 | 47 | 1012.3 |
| 20260905170400 | 99 | 0 | 2.0 | 9.0 | 0.00 | 0.00 | 0.00 | 46 | 1012.4 |
| 20260905165907 | 99 | 5 | 1.0 | 9.0 | 0.00 | 0.00 | 0.00 | 47 | 1012.5 |
| 20260905165400 | 99 | 71 | 0.0 | 4.0 | 0.00 | 0.00 | 0.00 | 49 | 1012.4 |
| 20260905164858 | 98 | 121 | 0.0 | 2.0 | 0.00 | 0.00 | 0.00 | 49 | 1012.5 |
| 20260905164356 | 98 | 100 | 1.0 | 4.0 | 0.00 | 0.00 | 0.00 | 51 | 1012.6 |
| 20260905163850 | 97 | 167 | 1.0 | 6.0 | 0.00 | 0.00 | 0.00 | 50 | 1012.5 |
| 20260905163341 | 97 | 178 | 2.0 | 6.0 | 0.00 | 0.00 | 0.00 | 51 | 1012.6 |
| 20260905162835 | 96 | 250 | 1.0 | 5.0 | 0.00 | 0.00 | 0.00 | 51 | 1012.6 |
| 20260905162321 | 96 | 277 | 1.0 | 5.0 | 0.00 | 0.00 | 0.00 | 51 | 1012.8 |
| 20260905161822 | 96 | 299 | 1.0 | 3.0 | 0.00 | 0.00 | 0.00 | 55 | 1012.8 |
| 20260905161316 | 96 | 300 | 1.0 | 3.0 | 0.00 | 0.00 | 0.00 | 54 | 1012.8 |
| 20260905160806 | 96 | 271 | 1.0 | 3.0 | 0.00 | 0.00 | 0.00 | 54 | 1012.8 |
| 20260905160304 | 96 | 119 | 1.0 | 3.0 | 0.00 | 0.00 | 0.00 | 57 | 1012.9 |
| 20260905155804 | 95 | 194 | 1.0 | 3.0 | 0.00 | 0.00 | 0.00 | 55 | 1013.0 |
| 20260905155256 | 94 | 174 | 1.0 | 3.0 | 0.00 | 0.00 | 0.00 | 58 | 1013.1 |
| 20260905154753 | 94 | 67 | 1.0 | 3.0 | 0.00 | 0.00 | 0.00 | 59 | 1013.0 |
| 20260905154252 | 93 | 67 | 1.0 | 3.0 | 0.00 | 0.00 | 0.00 | 60 | 1012.9 |
| 20260905153750 | 93 | 230 | 1.0 | 3.0 | 0.00 | 0.00 | 0.00 | 62 | 1012.9 |
| 20260905153232 | 92 | 225 | 1.0 | 3.0 | 0.00 | 0.00 | 0.00 | 61 | 1012.9 |
| 20260905152959 | 92 | 204 | 1.0 | 3.0 | 0.00 | 0.00 | 0.00 | 63 | 1013.0 |
| 20260905152217 | 91 | 236 | 0.0 | 3.0 | 0.00 | 0.00 | 0.00 | 63 | 1013.0 |
| 20260905151717 | 91 | 242 | 0.0 | 0.0 | 0.00 | 0.00 | 0.00 | 64 | 1013.0 |
| 20260905151220 | 90 | 242 | 0.0 | 0.0 | 0.00 | 0.00 | 0.00 | 65 | 1013.0 |
| 20260905150658 | 90 | 242 | 0.0 | 0.0 | 0.00 | 0.00 | 0.00 | 65 | 1013.0 |
| 20260905150151 | 89 | 242 | 0.0 | 0.0 | 0.00 | 0.00 | 0.00 | 68 | 1013.1 |
| 20260905145634 | 89 | 241 | 0.0 | 0.0 | 0.00 | 0.00 | 0.00 | 68 | 1013.0 |
| 20260905145127 | 89 | 240 | 0.0 | 0.0 | 0.00 | 0.00 | 0.00 | 70 | 1012.9 |
| 20260905144619 | 88 | 240 | 0.0 | 0.0 | 0.00 | 0.00 | 0.00 | 69 | 1012.9 |
| 20260905144114 | 87 | 154 | 0.0 | 0.0 | 0.00 | 0.00 | 0.00 | 72 | 1012.9 |
| 20260905143837 | 86 | 154 | 0.0 | 0.0 | 0.00 | 0.00 | 0.00 | 74 | 1012.8 |
| 20260905143113 | 85 | 154 | 0.0 | 0.0 | 0.00 | 0.00 | 0.00 | 75 | 1012.8 |
| 20260905142557 | 85 | 154 | 0.0 | 0.0 | 0.00 | 0.00 | 0.00 | 78 | 1012.7 |
| 20260905142057 | 84 | 154 | 0.0 | 0.0 | 0.00 | 0.00 | 0.00 | 83 | 1012.7 |
| 20260905141552 | 82 | 154 | 0.0 | 0.0 | 0.00 | 0.00 | 0.00 | 86 | 1012.7 |
| 20260905141320 | 81 | 154 | 0.0 | 0.0 | 0.00 | 0.00 | 0.00 | 91 | 1012.6 |
| 20260905140541 | 80 | 154 | 0.0 | 0.0 | 0.00 | 0.00 | 0.00 | 93 | 1012.5 |
| 20260905140038 | 79 | 154 | 0.0 | 0.0 | 0.00 | 0.00 | 0.00 | 94 | 1012.5 |
| 20260905135541 | 78 | 154 | 0.0 | 0.0 | 0.00 | 0.00 | 0.00 | 95 | 1012.4 |
| 20260905135036 | 77 | 154 | 0.0 | 0.0 | 0.00 | 0.00 | 0.00 | 95 | 1012.4 |
| 20260905134532 | 77 | 154 | 0.0 | 0.0 | 0.00 | 0.00 | 0.00 | 95 | 1012.4 |
| 20260905134011 | 76 | 154 | 0.0 | 0.0 | 0.00 | 0.00 | 0.00 | 95 | 1012.4 |
| 20260905133501 | 76 | 154 | 0.0 | 0.0 | 0.00 | 0.00 | 0.00 | 95 | 1012.3 |
| 20260905133230 | 76 | 154 | 0.0 | 0.0 | 0.00 | 0.00 | 0.00 | 95 | 1012.4 |
| 20260905132454 | 76 | 154 | 0.0 | 0.0 | 0.00 | 0.00 | 0.00 | 96 | 1012.3 |
| 20260905131941 | 75 | 154 | 0.0 | 0.0 | 0.00 | 0.00 | 0.00 | 95 | 1012.4 |
| 20260905131651 | 75 | 154 | 0.0 | 0.0 | 0.00 | 0.00 | 0.00 | 96 | 1012.4 |
| 20260905130906 | 74 | 154 | 0.0 | 0.0 | 0.00 | 0.00 | 0.00 | 95 | 1012.4 |
| 20260905130403 | 74 | 154 | 0.0 | 0.0 | 0.00 | 0.00 | 0.00 | 95 | 1012.5 |
| 20260905125854 | 74 | 154 | 0.0 | 0.0 | 0.00 | 0.00 | 0.00 | 95 | 1012.4 |
| 20260905125346 | 73 | 154 | 0.0 | 0.0 | 0.00 | 0.00 | 0.00 | 95 | 1012.5 |
| 20260905124833 | 73 | 154 | 0.0 | 0.0 | 0.00 | 0.00 | 0.00 | 95 | 1012.4 |
| 20260905124325 | 73 | 154 | 0.0 | 0.0 | 0.00 | 0.00 | 0.00 | 95 | 1012.4 |
| 20260905123825 | 73 | 154 | 0.0 | 0.0 | 0.00 | 0.00 | 0.00 | 95 | 1012.3 |
| 20260905123746 | 73 | 154 | 0.0 | 0.0 | 0.00 | 0.00 | 0.00 | 95 | 1012.3 |
| 20260905122740 | 72 | 154 | 0.0 | 0.0 | 0.00 | 0.00 | 0.00 | 95 | 1012.3 |
| 20260905122238 | 72 | 154 | 0.0 | 0.0 | 0.00 | 0.00 | 0.00 | 95 | 1012.2 |
| 20260905121732 | 72 | 154 | 0.0 | 0.0 | 0.00 | 0.00 | 0.00 | 95 | 1012.2 |
| 20260905121502 | 72 | 154 | 0.0 | 0.0 | 0.00 | 0.00 | 0.00 | 94 | 1012.2 |
| 20260905120941 | 72 | 154 | 0.0 | 0.0 | 0.00 | 0.00 | 0.00 | 94 | 1012.2 |